createdAt,value
2022-09-10T00:00:06.171Z,99.90
2022-09-10T00:01:43.422Z,99.90
2022-09-10T00:03:16.881Z,99.90
2022-09-10T00:04:50.389Z,99.90
2022-09-10T00:06:26.074Z,99.90
2022-09-10T00:07:59.327Z,99.90
2022-09-10T00:09:32.356Z,99.90
2022-09-10T00:11:06.727Z,99.90
2022-09-10T00:12:39.940Z,99.90
2022-09-10T00:14:16.373Z,99.90
2022-09-10T00:15:50.333Z,99.90
2022-09-10T00:17:24.242Z,99.90
2022-09-10T00:18:58.339Z,99.90
2022-09-10T00:20:31.377Z,99.90
2022-09-10T00:22:04.436Z,99.90
2022-09-10T00:23:38.195Z,99.90
2022-09-10T00:25:11.883Z,99.90
2022-09-10T00:26:45.695Z,99.90
2022-09-10T00:28:18.404Z,99.90
2022-09-10T00:29:52.809Z,99.90
2022-09-10T00:31:26.329Z,99.90
2022-09-10T00:33:00.366Z,99.90
2022-09-10T00:34:36.274Z,99.90
2022-09-10T00:36:16.107Z,99.90
2022-09-10T00:37:49.324Z,99.90
2022-09-10T00:39:22.380Z,99.90
2022-09-10T00:41:03.350Z,99.90
2022-09-10T00:42:36.380Z,99.90
2022-09-10T00:44:47.871Z,99.90
2022-09-10T00:46:33.450Z,99.90
2022-09-10T00:48:14.280Z,99.90
2022-09-10T00:49:51.754Z,99.90
2022-09-10T00:51:26.204Z,99.90
2022-09-10T00:53:05.993Z,99.90
2022-09-10T00:54:41.170Z,99.90
2022-09-10T00:56:14.333Z,99.90
2022-09-10T00:57:50.226Z,99.90
2022-09-10T00:59:26.536Z,99.90
2022-09-10T01:01:03.036Z,99.90
2022-09-10T01:02:36.385Z,99.90
2022-09-10T01:04:10.695Z,99.90
2022-09-10T01:05:48.302Z,99.90
2022-09-10T01:07:22.942Z,99.90
2022-09-10T01:08:56.094Z,99.90
2022-09-10T01:10:32.539Z,99.90
2022-09-10T01:12:17.518Z,99.90
2022-09-10T01:14:10.840Z,99.90
2022-09-10T01:15:49.225Z,99.90
2022-09-10T01:17:31.334Z,99.90
2022-09-10T01:19:14.733Z,99.90
2022-09-10T01:21:00.344Z,99.90
2022-09-10T01:22:44.133Z,99.90
2022-09-10T01:24:55.955Z,99.90
2022-09-10T01:26:51.463Z,99.90
2022-09-10T01:28:31.514Z,99.90
2022-09-10T01:30:09.315Z,99.90
2022-09-10T01:31:51.052Z,99.90
2022-09-10T01:33:27.796Z,99.90
2022-09-10T01:35:08.937Z,99.90
2022-09-10T01:36:49.150Z,99.90
2022-09-10T01:38:27.515Z,99.90
2022-09-10T01:40:04.153Z,99.90
2022-09-10T01:41:40.229Z,99.90
2022-09-10T01:43:12.972Z,99.90
2022-09-10T01:44:56.926Z,99.90
2022-09-10T01:46:43.455Z,99.90
2022-09-10T01:48:35.880Z,99.90
2022-09-10T01:50:22.744Z,99.90
2022-09-10T01:52:22.214Z,99.90
2022-09-10T01:54:11.127Z,99.90
2022-09-10T01:55:51.817Z,99.90
2022-09-10T01:57:35.092Z,99.90
2022-09-10T01:59:17.477Z,99.90
2022-09-10T02:00:55.985Z,99.90
2022-09-10T02:02:33.513Z,99.90
2022-09-10T02:04:10.672Z,99.90
2022-09-10T02:05:46.346Z,99.90
2022-09-10T02:07:23.811Z,99.90
2022-09-10T02:09:00.480Z,99.90
2022-09-10T02:10:33.604Z,99.90
2022-09-10T02:12:07.941Z,99.90
2022-09-10T02:13:55.669Z,99.90
2022-09-10T02:15:53.834Z,99.90
2022-09-10T02:17:33.567Z,99.90
2022-09-10T02:19:08.097Z,99.90
2022-09-10T02:20:41.448Z,99.90
2022-09-10T02:22:16.019Z,99.90
2022-09-10T02:23:54.815Z,99.90
2022-09-10T02:25:31.763Z,99.90
2022-09-10T02:27:04.546Z,99.90
2022-09-10T02:28:38.371Z,99.90
2022-09-10T02:30:12.124Z,99.90
2022-09-10T02:31:47.390Z,99.90
2022-09-10T02:33:20.899Z,99.90
2022-09-10T02:34:54.233Z,99.90
2022-09-10T02:36:27.509Z,99.90
2022-09-10T02:38:00.335Z,99.90
2022-09-10T02:39:33.577Z,99.90
2022-09-10T02:41:06.589Z,99.90
2022-09-10T02:42:39.677Z,99.90
2022-09-10T02:44:12.718Z,99.90
2022-09-10T02:45:46.077Z,99.90
2022-09-10T02:47:20.801Z,99.90
2022-09-10T02:48:55.165Z,99.90
2022-09-10T02:50:29.317Z,99.90
2022-09-10T02:52:03.510Z,99.90
2022-09-10T02:53:36.810Z,99.90
2022-09-10T02:55:12.625Z,99.90
2022-09-10T02:56:45.690Z,99.90
2022-09-10T02:58:19.355Z,99.90
2022-09-10T02:59:53.085Z,99.90
2022-09-10T03:01:26.726Z,99.90
2022-09-10T03:03:06.401Z,99.90
2022-09-10T03:04:39.960Z,99.90
2022-09-10T03:06:13.666Z,99.90
2022-09-10T03:07:47.908Z,99.90
2022-09-10T03:09:21.139Z,99.90
2022-09-10T03:10:53.668Z,99.90
2022-09-10T03:12:26.705Z,99.90
2022-09-10T03:14:00.583Z,99.90
2022-09-10T03:15:35.861Z,99.90
2022-09-10T03:17:09.502Z,99.90
2022-09-10T03:18:44.324Z,99.90
2022-09-10T03:20:18.176Z,99.90
2022-09-10T03:21:51.229Z,99.90
2022-09-10T03:23:24.465Z,99.90
2022-09-10T03:24:58.571Z,99.90
2022-09-10T03:26:31.826Z,99.90
2022-09-10T03:28:04.948Z,99.90
2022-09-10T03:29:38.015Z,99.90
2022-09-10T03:31:11.902Z,99.90
2022-09-10T03:32:50.259Z,99.90
2022-09-10T03:34:25.091Z,99.90
2022-09-10T03:35:58.445Z,99.90
2022-09-10T03:37:35.015Z,99.90
2022-09-10T03:39:07.916Z,99.90
2022-09-10T03:40:41.173Z,99.90
2022-09-10T03:42:16.498Z,99.90
2022-09-10T03:43:49.968Z,99.90
2022-09-10T03:45:23.298Z,99.90
2022-09-10T03:46:56.362Z,99.90
2022-09-10T03:48:29.453Z,99.90
2022-09-10T03:50:04.533Z,99.90
2022-09-10T03:51:37.972Z,99.90
2022-09-10T03:53:11.615Z,99.90
2022-09-10T03:54:45.532Z,99.90
2022-09-10T03:56:20.220Z,99.90
2022-09-10T03:57:53.580Z,99.90
2022-09-10T03:59:26.713Z,99.90
2022-09-10T04:01:00.936Z,99.90
2022-09-10T04:02:35.747Z,99.90
2022-09-10T04:04:09.265Z,99.90
2022-09-10T04:05:44.563Z,99.90
2022-09-10T04:07:17.785Z,99.90
2022-09-10T04:08:52.008Z,99.90
2022-09-10T04:10:26.870Z,99.90
2022-09-10T04:12:00.017Z,99.90
2022-09-10T04:13:35.322Z,99.90
2022-09-10T04:15:09.928Z,99.90
2022-09-10T04:16:43.084Z,99.90
2022-09-10T04:18:18.431Z,99.90
2022-09-10T04:19:52.669Z,99.90
2022-09-10T04:21:27.414Z,99.90
2022-09-10T04:23:02.950Z,99.90
2022-09-10T04:24:36.925Z,99.90
2022-09-10T04:26:14.499Z,99.90
2022-09-10T04:27:48.293Z,99.90
2022-09-10T04:29:21.480Z,99.90
2022-09-10T04:30:53.815Z,99.90
2022-09-10T04:32:30.270Z,99.90
2022-09-10T04:34:03.546Z,99.90
2022-09-10T04:35:39.511Z,99.90
2022-09-10T04:37:19.171Z,99.90
2022-09-10T04:38:53.468Z,99.90
2022-09-10T04:40:27.350Z,99.90
2022-09-10T04:42:01.188Z,99.90
2022-09-10T04:43:34.520Z,99.90
2022-09-10T04:45:09.675Z,99.90
2022-09-10T04:46:44.856Z,99.90
2022-09-10T04:48:17.989Z,99.90
2022-09-10T04:49:50.064Z,99.90
2022-09-10T04:51:23.959Z,99.90
2022-09-10T04:53:01.190Z,99.90
2022-09-10T04:54:34.466Z,99.90
2022-09-10T04:56:07.428Z,99.90
2022-09-10T04:57:43.301Z,99.90
2022-09-10T04:59:15.512Z,99.90
2022-09-10T05:00:51.314Z,99.90
2022-09-10T05:02:26.177Z,99.90
2022-09-10T05:03:59.491Z,99.90
2022-09-10T05:05:33.168Z,99.90
2022-09-10T05:07:07.295Z,99.90
2022-09-10T05:08:41.762Z,99.90
2022-09-10T05:10:16.173Z,99.90
2022-09-10T05:11:49.893Z,99.90
2022-09-10T05:13:25.393Z,99.90
2022-09-10T05:14:58.516Z,99.90
2022-09-10T05:16:31.665Z,99.90
2022-09-10T05:18:04.831Z,99.90
2022-09-10T05:19:40.671Z,99.90
2022-09-10T05:21:15.301Z,99.90
2022-09-10T05:22:49.953Z,99.90
2022-09-10T05:24:24.223Z,99.90
2022-09-10T05:25:58.587Z,99.90
2022-09-10T05:27:32.606Z,99.90
2022-09-10T05:29:06.517Z,99.90
2022-09-10T05:30:39.782Z,99.90
2022-09-10T05:32:13.321Z,99.90
2022-09-10T05:33:46.568Z,99.90
2022-09-10T05:35:19.725Z,99.90
2022-09-10T05:36:52.608Z,99.90
2022-09-10T05:38:26.521Z,99.90
2022-09-10T05:40:01.108Z,99.90
2022-09-10T05:41:37.651Z,1.00
2022-09-10T05:43:12.100Z,1.00
2022-09-10T05:44:45.410Z,1.00
2022-09-10T05:46:18.537Z,1.00
2022-09-10T05:47:55.802Z,1.00
2022-09-10T05:49:30.325Z,1.00
2022-09-10T05:51:04.033Z,1.00
2022-09-10T05:52:37.117Z,1.00
2022-09-10T05:54:12.686Z,1.00
2022-09-10T05:55:48.624Z,1.00
2022-09-10T05:57:22.357Z,1.00
2022-09-10T05:58:55.381Z,1.00
2022-09-10T06:00:28.627Z,1.00
2022-09-10T06:02:05.511Z,1.00
2022-09-10T06:03:40.239Z,1.00
2022-09-10T06:05:13.277Z,1.00
2022-09-10T06:06:46.770Z,5.00
2022-09-10T06:08:22.077Z,99.90
2022-09-10T06:09:57.391Z,99.90
2022-09-10T06:11:44.001Z,99.90
2022-09-10T06:13:17.125Z,99.90
2022-09-10T06:14:50.584Z,99.90
2022-09-10T06:16:24.278Z,99.90
2022-09-10T06:17:57.993Z,99.90
2022-09-10T06:19:31.548Z,99.90
2022-09-10T06:21:07.106Z,99.90
2022-09-10T06:22:40.381Z,99.90
2022-09-10T06:24:14.520Z,99.90
2022-09-10T06:25:48.777Z,99.90
2022-09-10T06:27:24.157Z,99.90
2022-09-10T06:28:57.862Z,99.90
2022-09-10T06:30:30.212Z,99.90
2022-09-10T06:32:03.867Z,1.00
2022-09-10T06:33:37.352Z,1.00
2022-09-10T06:35:11.527Z,1.00
2022-09-10T06:36:45.604Z,1.00
2022-09-10T06:38:18.676Z,58.00
2022-09-10T06:39:51.920Z,65.10
2022-09-10T06:41:25.588Z,99.90
2022-09-10T06:43:06.060Z,1.00
2022-09-10T06:45:06.859Z,1.00
2022-09-10T06:47:32.500Z,1.00
2022-09-10T06:48:48.294Z,1.00
2022-09-10T06:50:23.855Z,1.00
2022-09-10T06:51:57.756Z,1.00
2022-09-10T06:53:33.267Z,1.00
2022-09-10T06:55:08.392Z,1.00
2022-09-10T06:56:49.580Z,1.00
2022-09-10T06:58:25.048Z,1.00
2022-09-10T06:59:58.750Z,1.00
2022-09-10T07:01:33.004Z,99.90
2022-09-10T07:03:06.980Z,1.00
2022-09-10T07:04:40.427Z,1.00
2022-09-10T07:06:15.712Z,1.00
2022-09-10T07:07:50.506Z,1.00
2022-09-10T07:09:24.051Z,1.00
2022-09-10T07:11:05.607Z,1.00
2022-09-10T07:12:38.635Z,50.90
2022-09-10T07:14:14.662Z,83.20
2022-09-10T07:15:47.673Z,83.10
2022-09-10T07:17:22.012Z,86.50
2022-09-10T07:18:56.449Z,84.60
2022-09-10T07:20:33.363Z,68.70
2022-09-10T07:22:06.680Z,54.40
2022-09-10T07:23:41.497Z,61.40
2022-09-10T07:25:14.971Z,64.70
2022-09-10T07:26:58.733Z,65.80
2022-09-10T07:28:32.196Z,30.10
2022-09-10T07:30:08.141Z,49.90
2022-09-10T07:31:41.619Z,45.30
2022-09-10T07:33:19.185Z,29.80
2022-09-10T07:34:52.274Z,25.40
2022-09-10T07:36:26.712Z,27.10
2022-09-10T07:38:00.645Z,61.70
2022-09-10T07:39:34.501Z,80.70
2022-09-10T07:41:11.218Z,60.80
2022-09-10T07:42:44.463Z,99.90
2022-09-10T07:44:17.775Z,99.90
2022-09-10T07:45:53.513Z,99.90
2022-09-10T07:47:27.321Z,99.90
2022-09-10T07:49:01.733Z,84.90
2022-09-10T07:50:35.129Z,99.90
2022-09-10T07:52:08.379Z,90.60
2022-09-10T07:53:55.115Z,87.40
2022-09-10T07:55:29.079Z,87.40
2022-09-10T07:57:02.403Z,97.10
2022-09-10T07:58:38.201Z,84.80
2022-09-10T08:00:16.815Z,77.10
2022-09-10T08:01:54.250Z,85.40
2022-09-10T08:03:27.540Z,83.40
2022-09-10T08:05:01.108Z,85.90
2022-09-10T08:06:35.107Z,83.70
2022-09-10T08:08:10.508Z,99.90
2022-09-10T08:09:44.003Z,93.90
2022-09-10T08:11:22.670Z,93.70
2022-09-10T08:12:58.856Z,92.70
2022-09-10T08:14:32.242Z,90.80
2022-09-10T08:16:07.722Z,88.70
2022-09-10T08:17:42.150Z,81.80
2022-09-10T08:19:16.406Z,91.90
2022-09-10T08:20:55.165Z,99.90
2022-09-10T08:22:28.653Z,92.90
2022-09-10T08:24:03.401Z,99.90
2022-09-10T08:25:38.431Z,99.90
2022-09-10T08:27:11.949Z,99.90
2022-09-10T08:28:45.386Z,99.90
2022-09-10T08:30:18.746Z,99.90
2022-09-10T08:31:52.073Z,99.90
2022-09-10T08:33:32.525Z,99.90
2022-09-10T08:35:06.221Z,99.90
2022-09-10T08:36:40.477Z,99.90
2022-09-10T08:38:13.527Z,98.10
2022-09-10T08:39:46.785Z,91.30
2022-09-10T08:41:31.409Z,98.30
2022-09-10T08:43:07.220Z,99.90
2022-09-10T08:44:49.033Z,99.90
2022-09-10T08:46:25.520Z,99.90
2022-09-10T08:48:04.593Z,99.50
2022-09-10T08:49:45.220Z,99.90
2022-09-10T08:51:27.470Z,99.90
2022-09-10T08:53:06.584Z,99.90
2022-09-10T08:54:46.003Z,97.30
2022-09-10T08:56:23.252Z,94.20
2022-09-10T08:58:00.419Z,99.90
2022-09-10T08:59:40.519Z,99.90
2022-09-10T09:01:24.799Z,99.90
2022-09-10T09:03:02.811Z,99.90
2022-09-10T09:04:44.923Z,99.90
2022-09-10T09:06:31.273Z,99.90
2022-09-10T09:08:06.207Z,99.90
2022-09-10T09:09:43.817Z,99.90
2022-09-10T09:11:23.229Z,99.90
2022-09-10T09:13:27.622Z,99.90
2022-09-10T09:15:12.121Z,99.90
2022-09-10T09:17:01.984Z,99.90
2022-09-10T09:18:48.628Z,99.90
2022-09-10T09:20:34.689Z,99.90
2022-09-10T09:22:16.090Z,99.90
2022-09-10T09:24:12.223Z,99.90
2022-09-10T09:25:50.929Z,99.90
2022-09-10T09:27:30.392Z,99.90
2022-09-10T09:29:07.318Z,99.90
2022-09-10T09:30:49.567Z,99.90
2022-09-10T09:32:24.896Z,97.00
2022-09-10T09:34:03.088Z,99.90
2022-09-10T09:35:45.737Z,97.20
2022-09-10T09:37:22.767Z,93.30
2022-09-10T09:38:57.239Z,99.90
2022-09-10T09:40:39.160Z,99.90
2022-09-10T09:42:22.343Z,99.90
2022-09-10T09:44:03.762Z,99.90
2022-09-10T09:45:43.309Z,99.90
2022-09-10T09:47:18.508Z,99.90
2022-09-10T09:48:55.255Z,94.10
2022-09-10T09:50:33.573Z,95.40
2022-09-10T09:52:18.921Z,97.40
2022-09-10T09:54:25.852Z,99.90
2022-09-10T09:55:53.858Z,99.90
2022-09-10T09:57:27.279Z,99.90
2022-09-10T09:59:14.878Z,99.90
2022-09-10T10:00:49.929Z,99.90
2022-09-10T10:02:25.032Z,99.90
2022-09-10T10:04:01.692Z,99.90
2022-09-10T10:05:34.888Z,99.90
2022-09-10T10:07:08.122Z,99.90
2022-09-10T10:08:46.014Z,99.90
2022-09-10T10:10:25.766Z,99.90
2022-09-10T10:12:00.390Z,99.90
2022-09-10T10:13:38.025Z,99.90
2022-09-10T10:15:36.459Z,95.30
2022-09-10T10:17:43.491Z,92.30
2022-09-10T10:19:29.589Z,99.90
2022-09-10T10:21:18.489Z,90.10
2022-09-10T10:22:51.586Z,90.30
2022-09-10T10:24:33.257Z,91.80
2022-09-10T10:26:19.144Z,98.00
2022-09-10T10:27:54.400Z,99.90
2022-09-10T10:29:28.674Z,99.90
2022-09-10T10:31:04.361Z,99.90
2022-09-10T10:32:44.628Z,99.90
2022-09-10T10:34:38.406Z,99.90
2022-09-10T10:36:19.892Z,99.90
2022-09-10T10:38:13.460Z,99.90
2022-09-10T10:40:05.777Z,99.90
2022-09-10T10:41:47.219Z,99.90
2022-09-10T10:43:29.414Z,99.90
2022-09-10T10:45:18.281Z,91.60
2022-09-10T10:47:03.122Z,92.60
2022-09-10T10:48:50.345Z,99.90
2022-09-10T10:50:35.347Z,99.90
2022-09-10T10:52:15.380Z,99.90
2022-09-10T10:53:59.738Z,99.90
2022-09-10T10:55:38.873Z,99.90
2022-09-10T10:57:24.410Z,99.90
2022-09-10T10:59:12.443Z,99.90
2022-09-10T11:00:51.350Z,99.90
2022-09-10T11:02:34.829Z,99.90
2022-09-10T11:04:27.288Z,99.90
2022-09-10T11:06:05.560Z,99.90
2022-09-10T11:07:42.140Z,99.90
2022-09-10T11:09:20.973Z,98.90
2022-09-10T11:11:00.531Z,99.90
2022-09-10T11:12:36.766Z,99.90
2022-09-10T11:14:20.040Z,98.90
2022-09-10T11:15:59.820Z,93.20
2022-09-10T11:17:39.595Z,97.90
2022-09-10T11:19:18.845Z,99.90
2022-09-10T11:21:01.675Z,99.90
2022-09-10T11:22:39.536Z,99.90
2022-09-10T11:24:17.160Z,99.90
2022-09-10T11:25:59.537Z,99.90
2022-09-10T11:27:37.985Z,99.90
2022-09-10T11:29:25.354Z,99.90
2022-09-10T11:31:09.920Z,99.90
2022-09-10T11:32:47.227Z,99.90
2022-09-10T11:34:27.254Z,99.90
2022-09-10T11:36:09.555Z,99.90
2022-09-10T11:37:55.670Z,99.90
2022-09-10T11:39:35.580Z,99.90
2022-09-10T11:41:17.264Z,99.90
2022-09-10T11:42:54.057Z,98.30
2022-09-10T11:44:42.126Z,96.80
2022-09-10T11:46:17.643Z,96.40
2022-09-10T11:47:56.444Z,99.90
2022-09-10T11:49:40.304Z,99.90
2022-09-10T11:51:19.468Z,99.90
2022-09-10T11:52:53.338Z,99.90
2022-09-10T11:54:30.908Z,99.90
2022-09-10T11:56:32.361Z,99.90
2022-09-10T11:58:11.513Z,99.90
2022-09-10T12:00:07.421Z,99.90
2022-09-10T12:02:15.215Z,99.90
2022-09-10T12:04:05.559Z,99.90
2022-09-10T12:05:48.178Z,99.90
2022-09-10T12:07:33.568Z,99.90
2022-09-10T12:09:15.842Z,99.90
2022-09-10T12:11:04.312Z,99.90
2022-09-10T12:12:43.364Z,99.90
2022-09-10T12:14:18.556Z,99.90
2022-09-10T12:15:56.000Z,99.90
2022-09-10T12:17:33.405Z,99.90
2022-09-10T12:19:10.251Z,99.90
2022-09-10T12:20:49.751Z,99.90
2022-09-10T12:22:28.047Z,99.90
2022-09-10T12:24:05.034Z,99.90
2022-09-10T12:25:38.172Z,99.90
2022-09-10T12:27:17.989Z,99.90
2022-09-10T12:29:03.035Z,99.90
2022-09-10T12:31:02.798Z,99.90
2022-09-10T12:32:36.054Z,99.90
2022-09-10T12:34:19.690Z,99.90
2022-09-10T12:35:53.419Z,99.90
2022-09-10T12:37:28.168Z,99.90
2022-09-10T12:39:22.788Z,99.90
2022-09-10T12:40:56.322Z,99.90
2022-09-10T12:42:32.191Z,99.90
2022-09-10T12:44:42.664Z,99.90
2022-09-10T12:46:22.735Z,99.90
2022-09-10T12:47:55.952Z,99.90
2022-09-10T12:49:28.074Z,99.90
2022-09-10T12:51:04.263Z,99.90
2022-09-10T12:52:45.773Z,99.90
2022-09-10T12:54:38.766Z,99.90
2022-09-10T12:56:50.620Z,99.90
2022-09-10T12:58:33.314Z,99.90
2022-09-10T13:00:23.087Z,99.90
2022-09-10T13:01:56.118Z,99.90
2022-09-10T13:03:31.017Z,99.90
2022-09-10T13:05:07.322Z,99.90
2022-09-10T13:06:43.408Z,99.90
2022-09-10T13:08:21.362Z,97.20
2022-09-10T13:10:01.410Z,99.90
2022-09-10T13:11:36.868Z,99.90
2022-09-10T13:13:29.680Z,95.10
2022-09-10T13:15:03.717Z,98.00
2022-09-10T13:16:43.020Z,99.90
2022-09-10T13:18:31.156Z,99.90
2022-09-10T13:20:15.568Z,99.90
2022-09-10T13:21:54.928Z,99.90
2022-09-10T13:23:48.631Z,99.90
2022-09-10T13:25:27.183Z,99.90
2022-09-10T13:27:05.363Z,99.90
2022-09-10T13:29:02.007Z,99.90
2022-09-10T13:30:35.224Z,90.80
2022-09-10T13:32:20.466Z,94.20
2022-09-10T13:34:29.541Z,95.90
2022-09-10T13:36:24.637Z,99.90
2022-09-10T13:38:36.391Z,99.90
2022-09-10T13:40:31.566Z,99.90
2022-09-10T13:42:18.122Z,99.90
2022-09-10T13:44:16.251Z,95.20
2022-09-10T13:45:53.130Z,93.90
2022-09-10T13:47:34.485Z,90.30
2022-09-10T13:49:13.119Z,94.10
2022-09-10T13:50:54.944Z,99.90
2022-09-10T13:52:32.029Z,93.80
2022-09-10T13:54:09.422Z,95.00
2022-09-10T13:55:56.485Z,93.30
2022-09-10T13:57:34.531Z,96.10
2022-09-10T13:59:08.685Z,97.70
2022-09-10T14:00:49.723Z,99.90
2022-09-10T14:02:41.028Z,99.90
2022-09-10T14:04:26.203Z,99.90
2022-09-10T14:06:01.539Z,99.90
2022-09-10T14:07:34.755Z,99.60
2022-09-10T14:09:10.149Z,99.90
2022-09-10T14:10:53.075Z,96.20
2022-09-10T14:12:28.962Z,98.80
2022-09-10T14:14:07.404Z,99.90
2022-09-10T14:15:40.993Z,97.00
2022-09-10T14:17:20.578Z,90.30
2022-09-10T14:18:58.660Z,97.20
2022-09-10T14:20:35.700Z,99.90
2022-09-10T14:22:13.165Z,99.90
2022-09-10T14:23:46.369Z,99.90
2022-09-10T14:25:31.177Z,99.90
2022-09-10T14:27:18.476Z,95.40
2022-09-10T14:28:57.123Z,84.90
2022-09-10T14:30:29.970Z,99.90
2022-09-10T14:32:18.476Z,83.60
2022-09-10T14:33:51.843Z,99.90
2022-09-10T14:35:40.089Z,99.90
2022-09-10T14:37:33.502Z,99.90
2022-09-10T14:39:17.822Z,99.90
2022-09-10T14:40:53.485Z,99.90
2022-09-10T14:42:32.906Z,99.90
2022-09-10T14:44:17.779Z,99.90
2022-09-10T14:45:50.917Z,99.90
2022-09-10T14:47:30.264Z,99.90
2022-09-10T14:49:10.987Z,99.90
2022-09-10T14:50:48.331Z,99.90
2022-09-10T14:52:22.416Z,88.80
2022-09-10T14:53:56.974Z,87.40
2022-09-10T14:55:32.966Z,95.80
2022-09-10T14:57:09.888Z,94.00
2022-09-10T14:58:45.932Z,98.30
2022-09-10T15:00:19.098Z,99.90
2022-09-10T15:01:52.383Z,99.90
2022-09-10T15:03:25.759Z,99.90
2022-09-10T15:04:58.811Z,99.90
2022-09-10T15:06:33.347Z,99.90
2022-09-10T15:08:06.756Z,99.90
2022-09-10T15:09:40.594Z,99.90
2022-09-10T15:11:16.503Z,99.90
2022-09-10T15:12:52.091Z,99.90
2022-09-10T15:14:25.988Z,99.90
2022-09-10T15:15:59.054Z,99.90
2022-09-10T15:17:32.145Z,99.90
2022-09-10T15:19:04.234Z,99.90
2022-09-10T15:20:37.265Z,99.90
2022-09-10T15:22:21.228Z,99.90
2022-09-10T15:23:54.299Z,99.90
2022-09-10T15:25:38.224Z,99.90
2022-09-10T15:27:11.679Z,99.90
2022-09-10T15:28:44.755Z,99.90
2022-09-10T15:30:17.956Z,99.90
2022-09-10T15:31:51.779Z,99.90
2022-09-10T15:33:24.853Z,99.90
2022-09-10T15:34:57.892Z,99.90
2022-09-10T15:36:31.009Z,99.90
2022-09-10T15:38:04.533Z,99.90
2022-09-10T15:39:38.334Z,99.90
2022-09-10T15:41:13.627Z,99.90
2022-09-10T15:42:46.653Z,99.90
2022-09-10T15:44:19.926Z,99.90
2022-09-10T15:45:52.969Z,99.90
2022-09-10T15:47:26.958Z,99.90
2022-09-10T15:49:00.073Z,99.90
2022-09-10T15:50:32.157Z,99.90
2022-09-10T15:52:05.323Z,99.90
2022-09-10T15:53:40.772Z,99.90
2022-09-10T15:55:13.924Z,99.90
2022-09-10T15:56:46.986Z,99.90
2022-09-10T15:58:19.388Z,99.90
2022-09-10T15:59:54.325Z,99.90
2022-09-10T16:01:29.128Z,99.90
2022-09-10T16:03:02.320Z,99.90
2022-09-10T16:04:36.733Z,99.90
2022-09-10T16:06:11.581Z,99.90
2022-09-10T16:07:44.803Z,99.90
2022-09-10T16:09:19.278Z,99.90
2022-09-10T16:10:53.101Z,99.90
2022-09-10T16:12:27.321Z,99.90
2022-09-10T16:14:04.723Z,99.90
2022-09-10T16:15:38.255Z,99.90
2022-09-10T16:17:11.330Z,99.90
2022-09-10T16:18:44.783Z,99.90
2022-09-10T16:20:17.898Z,99.90
2022-09-10T16:21:51.033Z,99.90
2022-09-10T16:23:24.316Z,99.90
2022-09-10T16:24:58.723Z,99.90
2022-09-10T16:26:34.516Z,99.90
2022-09-10T16:28:07.595Z,99.90
2022-09-10T16:29:43.552Z,99.90
2022-09-10T16:31:18.895Z,99.90
2022-09-10T16:32:52.690Z,99.90
2022-09-10T16:34:25.785Z,99.90
2022-09-10T16:35:58.100Z,99.90
2022-09-10T16:37:33.348Z,99.90
2022-09-10T16:39:12.066Z,99.90
2022-09-10T16:40:46.966Z,99.90
2022-09-10T16:42:20.497Z,99.90
2022-09-10T16:43:55.496Z,99.90
2022-09-10T16:45:30.124Z,99.90
2022-09-10T16:47:03.393Z,99.90
2022-09-10T16:48:38.077Z,99.90
2022-09-10T16:50:11.399Z,99.90
2022-09-10T16:51:46.256Z,99.90
2022-09-10T16:53:18.373Z,99.90
2022-09-10T16:54:52.685Z,99.90
2022-09-10T16:56:27.216Z,99.90
2022-09-10T16:58:00.262Z,99.90
2022-09-10T16:59:33.333Z,99.90
2022-09-10T17:01:09.114Z,99.90
2022-09-10T17:02:43.191Z,99.90
2022-09-10T17:04:21.350Z,99.90
2022-09-10T17:05:57.489Z,99.90
2022-09-10T17:07:30.504Z,99.90
2022-09-10T17:09:04.155Z,99.90
2022-09-10T17:10:37.300Z,99.90
2022-09-10T17:12:11.687Z,99.90
2022-09-10T17:13:44.420Z,99.90
2022-09-10T17:15:18.633Z,99.90
2022-09-10T17:16:52.138Z,99.90
2022-09-10T17:18:25.229Z,99.90
2022-09-10T17:19:59.336Z,99.90
2022-09-10T17:21:34.583Z,99.90
2022-09-10T17:23:08.699Z,99.90
2022-09-10T17:24:41.806Z,99.90
2022-09-10T17:26:15.039Z,99.90
2022-09-10T17:27:49.557Z,99.90
2022-09-10T17:29:24.286Z,99.90
2022-09-10T17:30:58.013Z,99.90
2022-09-10T17:32:31.424Z,99.90
2022-09-10T17:34:05.164Z,99.90
2022-09-10T17:35:38.859Z,99.90
2022-09-10T17:37:11.891Z,99.90
2022-09-10T17:38:45.934Z,99.90
2022-09-10T17:40:20.073Z,99.90
2022-09-10T17:41:55.193Z,99.90
2022-09-10T17:43:32.589Z,99.90
2022-09-10T17:45:06.449Z,99.90
2022-09-10T17:46:40.079Z,99.90
2022-09-10T17:48:13.224Z,99.90
2022-09-10T17:49:46.401Z,99.90
2022-09-10T17:51:21.461Z,99.90
2022-09-10T17:52:54.475Z,99.90
2022-09-10T17:54:27.566Z,99.90
2022-09-10T17:56:04.748Z,99.90
2022-09-10T17:57:37.814Z,99.90
2022-09-10T17:59:14.278Z,99.90
2022-09-10T18:00:48.460Z,99.90
2022-09-10T18:02:21.603Z,99.90
2022-09-10T18:03:54.538Z,99.90
2022-09-10T18:05:27.822Z,99.90
2022-09-10T18:07:01.180Z,99.90
2022-09-10T18:08:34.688Z,99.90
2022-09-10T18:10:09.901Z,99.90
2022-09-10T18:11:43.578Z,99.90
2022-09-10T18:13:15.989Z,99.90
2022-09-10T18:14:50.427Z,99.90
2022-09-10T18:16:25.904Z,99.90
2022-09-10T18:18:00.798Z,99.90
2022-09-10T18:19:34.396Z,99.90
2022-09-10T18:21:15.375Z,99.90
2022-09-10T18:22:48.440Z,99.90
2022-09-10T18:24:24.026Z,99.90
2022-09-10T18:25:57.052Z,99.90
2022-09-10T18:27:30.174Z,99.90
2022-09-10T18:29:06.506Z,99.90
2022-09-10T18:30:40.946Z,99.90
2022-09-10T18:32:15.000Z,99.90
2022-09-10T18:33:47.091Z,99.90
2022-09-10T18:35:20.485Z,99.90
2022-09-10T18:36:55.155Z,99.90
2022-09-10T18:38:28.372Z,99.90
2022-09-10T18:40:02.033Z,99.90
2022-09-10T18:41:36.623Z,99.90
2022-09-10T18:43:09.640Z,99.90
2022-09-10T18:44:42.843Z,99.90
2022-09-10T18:46:17.903Z,99.90
2022-09-10T18:47:50.984Z,99.90
2022-09-10T18:49:25.278Z,99.90
2022-09-10T18:51:04.187Z,99.90
2022-09-10T18:52:38.035Z,99.90
2022-09-10T18:54:12.704Z,99.90
2022-09-10T18:55:45.989Z,99.90
2022-09-10T18:57:19.074Z,99.90
2022-09-10T18:58:53.495Z,99.90
2022-09-10T19:00:26.547Z,99.90
2022-09-10T19:02:04.386Z,99.90
2022-09-10T19:03:38.640Z,99.90
2022-09-10T19:05:12.606Z,99.90
2022-09-10T19:06:47.796Z,99.90
2022-09-10T19:08:20.953Z,99.90
2022-09-10T19:09:54.032Z,99.90
2022-09-10T19:11:32.933Z,99.90
2022-09-10T19:13:07.403Z,99.90
2022-09-10T19:14:40.408Z,99.90
2022-09-10T19:16:12.566Z,99.90
2022-09-10T19:17:46.998Z,99.90
2022-09-10T19:19:22.211Z,99.90
2022-09-10T19:20:55.915Z,99.90
2022-09-10T19:22:28.940Z,99.90
2022-09-10T19:24:02.726Z,99.90
2022-09-10T19:25:35.748Z,99.90
2022-09-10T19:27:08.761Z,99.90
2022-09-10T19:28:42.155Z,99.90
2022-09-10T19:30:15.301Z,99.90
2022-09-10T19:31:49.908Z,99.90
2022-09-10T19:33:24.297Z,99.90
2022-09-10T19:34:57.588Z,99.90
2022-09-10T19:36:31.697Z,99.90
2022-09-10T19:38:15.909Z,99.90
2022-09-10T19:39:59.075Z,99.90
2022-09-10T19:41:33.149Z,99.90
2022-09-10T19:43:06.883Z,99.90
2022-09-10T19:44:39.903Z,99.90
2022-09-10T19:46:13.378Z,99.90
2022-09-10T19:47:46.421Z,99.90
2022-09-10T19:49:21.613Z,99.90
2022-09-10T19:50:55.048Z,99.90
2022-09-10T19:52:28.139Z,99.90
2022-09-10T19:54:01.995Z,99.90
2022-09-10T19:55:36.248Z,99.90
2022-09-10T19:57:09.281Z,99.90
2022-09-10T19:58:43.528Z,99.90
2022-09-10T20:00:42.967Z,99.90
2022-09-10T20:02:11.482Z,99.90
2022-09-10T20:03:46.316Z,99.90
2022-09-10T20:05:20.757Z,99.90
2022-09-10T20:06:53.800Z,99.90
2022-09-10T20:08:25.949Z,99.90
2022-09-10T20:10:00.210Z,99.90
2022-09-10T20:11:35.224Z,99.90
2022-09-10T20:13:08.326Z,99.90
2022-09-10T20:14:41.368Z,99.90
2022-09-10T20:16:16.107Z,99.90
2022-09-10T20:17:51.136Z,99.90
2022-09-10T20:19:24.303Z,99.90
2022-09-10T20:21:10.723Z,99.90
2022-09-10T20:22:44.057Z,99.90
2022-09-10T20:24:17.609Z,99.90
2022-09-10T20:25:50.863Z,99.90
2022-09-10T20:27:24.182Z,99.90
2022-09-10T20:28:59.105Z,99.90
2022-09-10T20:30:31.500Z,99.90
2022-09-10T20:32:04.829Z,99.90
2022-09-10T20:33:38.632Z,99.90
2022-09-10T20:35:11.795Z,99.90
2022-09-10T20:36:46.703Z,99.90
2022-09-10T20:38:21.250Z,99.90
2022-09-10T20:39:56.579Z,99.90
2022-09-10T20:41:30.638Z,99.90
2022-09-10T20:43:03.804Z,99.90
2022-09-10T20:44:37.500Z,99.90
2022-09-10T20:46:16.052Z,99.90
2022-09-10T20:47:49.202Z,99.90
2022-09-10T20:49:21.316Z,99.90
2022-09-10T20:50:55.815Z,99.90
2022-09-10T20:52:30.273Z,99.90